Time;durP1;ratioP1;P1;durP2;ratioP2;P2;SDS_P1;SDS_P2;PMS_P1;PMS_P2;Temp;Humidity;BMP_temperature;BMP_pressure;BME280_temperature;BME280_humidity;BME280_pressure;Samples;Min_cycle;Max_cycle;Signal;HPM_P1;HPM_P2
2022/09/20 05:58:04;;;;;;;8.53;4.20;;;;;;;12.48;89.06;99683.52;1743360;80;21159;-37
2022/09/20 06:00:48;;;;;;;8.98;4.67;;;;;;;12.51;89.26;99686.52;1705171;81;21112;-38
2022/09/20 06:03:35;;;;;;;10.03;4.92;;;;;;;12.55;88.51;99689.97;1692992;81;21022;-38
2022/09/20 06:06:13;;;;;;;9.78;5.55;;;;;;;12.59;88.15;99693.83;1703942;82;21129;-39
2022/09/20 06:09:11;;;;;;;11.65;6.55;;;;;;;12.63;87.78;99692.86;1734250;80;21049;-37
2022/09/20 06:12:09;;;;;;;20.15;6.62;;;;;;;12.65;85.31;99691.54;1714670;80;20957;-45
2022/09/20 06:15:01;;;;;;;15.13;6.45;;;;;;;12.66;84.18;99686.70;1743743;80;21150;-39
2022/09/20 06:17:46;;;;;;;12.07;6.35;;;;;;;12.69;83.82;99690.12;1712262;82;21063;-38
2022/09/20 06:20:24;;;;;;;10.98;5.92;;;;;;;12.73;83.86;99690.49;1703489;81;21099;-45
2022/09/20 06:22:53;;;;;;;16.42;6.97;;;;;;;12.80;84.10;99691.23;1700924;81;21048;-46
2022/09/20 06:25:25;;;;;;;14.87;6.53;;;;;;;12.85;84.11;99689.40;1713286;81;21446;-39
2022/09/20 06:28:15;;;;;;;15.03;6.83;;;;;;;12.89;84.13;99688.91;1695812;82;21578;-38
2022/09/20 06:30:53;;;;;;;15.55;5.60;;;;;;;12.93;84.44;99693.18;1708394;81;22119;-45
2022/09/20 06:33:30;;;;;;;16.00;6.42;;;;;;;12.98;84.55;99699.21;1707151;81;21590;-43
2022/09/20 06:42:35;;;;;;;13.38;5.30;;;;;;;12.82;83.78;99718.80;1709918;82;21008;-37
2022/09/20 06:45:01;;;;;;;11.18;5.20;;;;;;;12.60;84.26;99732.30;1703158;81;21726;-37
2022/09/20 06:47:29;;;;;;;17.67;6.95;;;;;;;12.47;85.63;99754.39;1708138;81;21023;-37
2022/09/20 06:49:57;;;;;;;15.32;5.12;;;;;;;12.25;86.37;99769.14;1706175;81;21645;-44
2022/09/20 06:52:24;;;;;;;16.15;5.95;;;;;;;12.04;88.10;99769.45;1720960;81;21128;-37
2022/09/20 06:54:54;;;;;;;8.53;5.15;;;;;;;11.82;89.07;99771.94;1730524;80;21622;-39
2022/09/20 06:57:25;;;;;;;6.75;3.92;;;;;;;11.64;88.50;99770.39;1678793;81;21633;-38
2022/09/20 06:59:53;;;;;;;6.47;2.80;;;;;;;11.48;89.54;99774.08;1714482;80;21095;-44
2022/09/20 07:02:20;;;;;;;6.17;3.17;;;;;;;11.36;90.60;99772.47;1725210;80;21080;-44
2022/09/20 07:04:49;;;;;;;5.42;3.05;;;;;;;11.27;91.63;99782.63;1729246;80;21128;-38
2022/09/20 07:07:19;;;;;;;5.60;3.00;;;;;;;11.20;92.49;99780.96;1725034;80;20996;-44
2022/09/20 07:09:46;;;;;;;5.28;3.12;;;;;;;11.18;93.43;99778.78;1722191;80;21690;-38
2022/09/20 07:12:12;;;;;;;5.85;3.37;;;;;;;11.16;94.62;99772.26;1705285;81;21553;-43
2022/09/20 07:14:41;;;;;;;5.22;3.12;;;;;;;11.16;95.52;99773.56;1697364;81;21175;-43
2022/09/20 07:17:13;;;;;;;3.10;2.45;;;;;;;11.16;96.37;99774.88;1675484;82;21710;-37
2022/09/20 07:19:42;;;;;;;4.65;2.47;;;;;;;11.15;97.08;99773.59;1642132;83;21059;-36
2022/09/20 07:22:10;;;;;;;6.62;3.20;;;;;;;11.15;97.70;99769.22;1692853;81;20998;-44
2022/09/20 07:24:39;;;;;;;4.45;3.10;;;;;;;11.16;98.21;99768.77;1703825;82;21207;-37
2022/09/20 07:27:11;;;;;;;4.35;3.87;;;;;;;11.15;98.85;99766.60;1701240;80;21542;-37
2022/09/20 07:29:56;;;;;;;4.70;3.40;;;;;;;11.14;99.30;99758.77;1709459;79;21573;-36
2022/09/20 07:32:59;;;;;;;10.80;3.33;;;;;;;11.12;99.79;99761.83;1720883;80;21818;-44
2022/09/20 07:35:25;;;;;;;7.97;3.15;;;;;;;11.11;100.00;99766.64;1691646;81;21069;-37
2022/09/20 07:37:58;;;;;;;3.52;3.22;;;;;;;11.11;100.00;99762.27;1699317;81;22015;-44
2022/09/20 07:40:27;;;;;;;4.83;3.42;;;;;;;11.12;100.00;99752.22;1696698;81;21440;-37
2022/09/20 07:42:56;;;;;;;5.35;3.67;;;;;;;11.11;100.00;99746.56;1696012;81;21050;-44
2022/09/20 07:45:24;;;;;;;4.40;4.00;;;;;;;11.10;100.00;99748.77;1691987;82;21910;-44
2022/09/20 07:47:53;;;;;;;5.55;4.15;;;;;;;11.11;100.00;99745.25;1701974;81;21384;-37
2022/09/20 07:50:19;;;;;;;6.40;4.05;;;;;;;11.12;100.00;99737.82;1701327;81;21029;-37
2022/09/20 07:52:46;;;;;;;10.00;4.05;;;;;;;11.18;100.00;99722.04;1687418;82;21034;-37
2022/09/20 07:55:13;;;;;;;5.78;4.22;;;;;;;11.25;100.00;99702.33;1737401;80;21108;-37
2022/09/20 07:57:40;;;;;;;6.10;4.45;;;;;;;11.31;100.00;99690.05;1737739;80;21513;-45
2022/09/20 08:00:10;;;;;;;6.83;4.92;;;;;;;11.37;100.00;99689.11;1742391;80;21012;-44
2022/09/20 08:02:39;;;;;;;5.90;4.05;;;;;;;11.42;100.00;99679.00;1744346;80;21005;-45
2022/09/20 08:05:07;;;;;;;4.03;2.83;;;;;;;11.48;100.00;99671.91;1756643;80;21512;-44
2022/09/20 08:07:34;;;;;;;2.70;1.90;;;;;;;11.54;100.00;99659.63;1733703;80;21008;-38
2022/09/20 08:10:02;;;;;;;3.62;1.90;;;;;;;11.59;100.00;99638.13;1713675;81;21097;-44
2022/09/20 08:12:32;;;;;;;3.80;2.00;;;;;;;11.65;100.00;99626.28;1715412;81;20981;-37
2022/09/20 08:15:11;;;;;;;5.87;2.37;;;;;;;11.70;100.00;99613.95;1676637;82;21086;-37
2022/09/20 08:17:39;;;;;;;9.20;3.00;;;;;;;11.75;100.00;99611.71;1697919;82;21078;-44
2022/09/20 08:20:17;;;;;;;8.90;2.42;;;;;;;11.77;100.00;99606.89;1710822;81;22024;-44
2022/09/20 08:22:49;;;;;;;5.42;3.02;;;;;;;11.77;100.00;99608.20;1753995;78;21064;-37
2022/09/20 08:25:34;;;;;;;4.92;2.90;;;;;;;11.81;100.00;99613.82;1780779;78;21066;-37
2022/09/20 08:33:11;;;;;;;3.98;1.87;;;;;;;12.01;100.00;99631.01;1746919;79;21069;-44
2022/09/20 08:35:55;;;;;;;2.87;1.52;;;;;;;12.13;100.00;99625.55;1774201;78;21076;-44
2022/09/20 08:38:45;;;;;;;2.55;1.80;;;;;;;12.24;99.06;99626.23;1780792;78;20967;-37
2022/09/20 08:41:29;;;;;;;2.92;1.80;;;;;;;12.34;98.21;99629.55;1778449;78;21000;-38
2022/09/20 08:44:13;;;;;;;3.20;1.60;;;;;;;12.43;97.78;99622.39;1792674;78;21382;-44
2022/09/20 08:46:47;;;;;;;3.25;1.85;;;;;;;12.51;97.32;99635.35;1789573;78;21001;-45
2022/09/20 08:49:24;;;;;;;2.05;1.30;;;;;;;12.64;96.83;99623.76;1782960;78;21112;-38
2022/09/20 08:51:51;;;;;;;4.40;1.47;;;;;;;12.80;96.26;99613.80;1785702;78;21057;-37
2022/09/20 08:54:18;;;;;;;2.95;1.80;;;;;;;13.00;96.03;99608.17;1788901;78;21490;-37
2022/09/20 08:56:47;;;;;;;3.25;2.35;;;;;;;13.16;96.92;99610.90;1759388;79;21006;-37
2022/09/20 08:59:18;;;;;;;4.40;1.72;;;;;;;13.27;95.74;99610.22;1771172;78;21092;-45
2022/09/20 09:01:48;;;;;;;4.75;2.70;;;;;;;13.38;95.50;99618.33;1717527;81;21072;-37
2022/09/20 09:04:18;;;;;;;3.15;2.15;;;;;;;13.45;94.07;99619.91;1750759;80;21041;-37
2022/09/20 09:06:45;;;;;;;3.40;2.27;;;;;;;13.56;93.83;99613.96;1752985;80;21001;-38
2022/09/20 09:09:19;;;;;;;4.80;2.70;;;;;;;13.66;92.79;99612.86;1729266;79;20965;-44
2022/09/20 09:11:48;;;;;;;4.25;2.27;;;;;;;13.75;91.89;99610.03;1747232;79;21780;-45
2022/09/20 09:14:50;;;;;;;4.40;2.67;;;;;;;13.85;92.45;99606.25;1734336;81;21041;-37
2022/09/20 09:17:19;;;;;;;;;;;;;;;13.99;92.86;99602.44;1756113;78;21035;-38
2022/09/20 09:19:52;;;;;;;3.20;1.72;;;;;;;14.20;93.76;99597.94;1732549;80;20481;-37
2022/09/20 09:22:42;;;;;;;1.90;1.40;;;;;;;14.38;92.86;99592.67;1746781;80;21045;-37
2022/09/20 09:25:31;;;;;;;3.58;1.70;;;;;;;14.51;90.98;99578.76;1781992;78;21121;-44
2022/09/20 09:28:09;;;;;;;1.62;1.10;;;;;;;14.67;90.42;99582.70;1771437;78;21532;-45
2022/09/20 09:30:40;;;;;;;1.95;1.40;;;;;;;14.85;88.55;99581.31;1767521;78;21605;-44
2022/09/20 09:33:29;;;;;;;2.47;1.30;;;;;;;14.99;87.81;99587.48;1748311;79;21798;-44
2022/09/20 09:36:18;;;;;;;2.75;1.22;;;;;;;15.10;87.37;99590.67;1769409;78;21108;-39
2022/09/20 09:38:45;;;;;;;1.25;0.90;;;;;;;15.16;84.96;99586.53;1787298;78;21002;-44
2022/09/20 09:44:38;;;;;;;2.70;0.80;;;;;;;15.18;85.62;99581.62;1788017;78;21072;-45
2022/09/20 09:47:12;;;;;;;1.95;0.80;;;;;;;15.26;83.80;99579.23;1786316;78;21001;-45
2022/09/20 09:49:40;;;;;;;1.22;0.70;;;;;;;15.27;83.04;99578.31;1788910;77;21441;-45
2022/09/20 09:52:23;;;;;;;3.47;0.93;;;;;;;15.28;82.40;99577.40;1703517;80;21067;-38
2022/09/20 09:55:00;;;;;;;2.25;0.70;;;;;;;15.25;82.22;99574.84;1755447;79;21688;-38
2022/09/20 09:57:42;;;;;;;1.50;0.70;;;;;;;15.18;82.15;99568.90;1705384;81;21414;-45
2022/09/20 10:00:16;;;;;;;2.47;0.90;;;;;;;15.15;83.19;99559.78;1745345;81;21655;-45
2022/09/20 10:02:57;;;;;;;2.12;0.88;;;;;;;15.21;83.96;99556.97;1747114;81;21626;-45
2022/09/20 10:05:57;;;;;;;0.85;0.70;;;;;;;15.32;84.14;99551.37;1748071;80;21488;-38
2022/09/20 10:09:04;;;;;;;1.45;1.00;;;;;;;15.41;83.22;99551.92;1749258;81;21126;-45
2022/09/20 10:12:04;;;;;;;0.90;0.45;;;;;;;15.51;81.39;99546.38;1744237;80;21514;-44
2022/09/20 10:14:43;;;;;;;1.47;0.68;;;;;;;15.63;80.49;99535.46;1734045;81;21501;-38
2022/09/20 10:17:33;;;;;;;1.32;0.57;;;;;;;15.83;80.33;99531.73;1745412;80;21065;-37
2022/09/20 10:20:37;;;;;;;0.80;0.65;;;;;;;16.00;79.71;99536.41;1757447;80;21073;-44
2022/09/20 10:23:36;;;;;;;0.95;0.62;;;;;;;16.05;75.54;99523.92;1737651;81;21635;-37
2022/09/20 10:26:13;;;;;;;0.62;0.60;;;;;;;16.00;73.93;99520.58;1772441;78;21070;-37
2022/09/20 10:29:14;;;;;;;1.17;0.50;;;;;;;15.92;74.49;99510.75;1763947;80;20984;-44
2022/09/20 10:32:04;;;;;;;0.70;0.70;;;;;;;15.89;74.48;99500.33;1662630;84;21677;-44
2022/09/20 10:35:01;;;;;;;2.70;0.50;;;;;;;15.89;74.81;99491.95;1664826;83;21701;-44
2022/09/20 10:38:06;;;;;;;1.85;0.60;;;;;;;15.91;74.64;99493.21;1623144;86;21162;-44
2022/09/20 10:43:46;;;;;;;0.82;0.53;;;;;;;15.88;73.47;99493.30;1658169;83;21436;-37
2022/09/20 10:46:50;;;;;;;0.70;0.60;;;;;;;15.87;72.92;99499.04;1624508;85;21522;-39
2022/09/20 10:49:55;;;;;;;1.85;0.50;;;;;;;15.86;71.97;99493.82;1634977;84;21339;-44
2022/09/20 10:52:53;;;;;;;1.12;1.02;;;;;;;15.83;72.01;99497.87;1625293;86;21875;-44
2022/09/20 10:55:59;;;;;;;0.70;0.60;;;;;;;15.77;71.32;99495.02;1675842;83;21608;-38
2022/09/20 10:58:44;;;;;;;0.57;0.57;;;;;;;15.70;70.97;99502.23;1668881;83;21054;-39
2022/09/20 11:01:28;;;;;;;1.32;0.70;;;;;;;15.64;71.44;99502.91;1673209;83;21061;-39
2022/09/20 11:04:23;;;;;;;1.27;0.53;;;;;;;15.55;72.04;99509.78;1671359;83;20995;-46
2022/09/20 11:07:19;;;;;;;0.40;0.40;;;;;;;15.46;70.53;99514.88;1627936;82;21583;-46
2022/09/20 11:09:51;;;;;;;0.70;0.57;;;;;;;15.36;71.13;99523.53;1774953;78;22034;-46
2022/09/20 11:12:33;;;;;;;1.12;0.50;;;;;;;15.25;70.15;99526.98;1756886;78;21043;-39
2022/09/20 11:15:20;;;;;;;2.47;0.70;;;;;;;15.14;70.80;99518.09;1773349;78;21042;-39
2022/09/20 11:18:04;;;;;;;1.17;0.75;;;;;;;15.06;71.44;99520.08;1761049;79;21077;-39
2022/09/20 11:20:38;;;;;;;0.42;0.42;;;;;;;14.98;71.22;99519.46;1762074;78;21074;-38
2022/09/20 11:23:28;;;;;;;0.50;0.50;;;;;;;14.93;72.08;99520.51;1746933;80;21020;-38
2022/09/20 11:26:02;;;;;;;0.80;0.60;;;;;;;14.87;72.67;99526.82;1768044;78;21077;-45
2022/09/20 11:28:43;;;;;;;4.40;0.70;;;;;;;14.82;72.87;99523.45;1721105;79;21472;-39
2022/09/20 11:31:34;;;;;;;0.53;0.53;;;;;;;14.75;73.00;99523.23;1773670;78;21928;-39
2022/09/20 11:34:11;;;;;;;0.70;0.70;;;;;;;14.70;74.51;99525.13;1752964;78;21031;-46
2022/09/20 11:36:53;;;;;;;1.98;1.00;;;;;;;14.61;76.02;99527.56;1766341;78;21574;-46
2022/09/20 11:39:40;;;;;;;1.02;0.70;;;;;;;14.51;77.50;99520.40;1773517;79;21511;-40
2022/09/20 11:42:13;;;;;;;0.90;0.80;;;;;;;14.42;79.11;99526.33;1704586;82;21519;-40
2022/09/20 11:44:41;;;;;;;5.12;1.40;;;;;;;14.31;81.10;99538.45;1787837;78;21025;-48
2022/09/20 11:51:41;;;;;;;3.22;0.93;;;;;;;14.13;83.20;99534.55;1685836;82;21697;-48
2022/09/20 11:54:45;;;;;;;4.92;1.00;;;;;;;14.06;84.93;99537.80;1685669;83;21069;-39
2022/09/20 11:57:18;;;;;;;2.98;1.00;;;;;;;14.04;86.30;99540.08;1723166;80;21397;-40
2022/09/20 11:59:58;;;;;;;3.35;1.17;;;;;;;14.01;87.73;99550.66;1726302;81;21055;-40
2022/09/20 12:02:36;;;;;;;3.47;1.45;;;;;;;13.99;89.34;99544.13;1724211;80;21039;-40
2022/09/20 12:05:04;;;;;;;3.72;1.50;;;;;;;14.00;91.07;99550.25;1741666;80;21455;-47
2022/09/20 12:07:38;;;;;;;2.10;1.50;;;;;;;13.96;92.71;99551.23;1720661;81;21854;-44
2022/09/20 12:10:33;;;;;;;2.40;1.80;;;;;;;13.86;91.28;99537.47;1720947;81;21449;-47
2022/09/20 12:13:04;;;;;;;4.22;2.10;;;;;;;13.74;91.47;99539.95;1725944;80;20980;-46
2022/09/20 12:15:35;;;;;;;3.12;1.85;;;;;;;13.64;92.42;99525.76;1739367;81;21867;-46
2022/09/20 12:18:35;;;;;;;2.05;1.60;;;;;;;13.61;92.95;99524.50;1723089;80;21398;-39
2022/09/20 12:21:09;;;;;;;4.67;1.37;;;;;;;13.59;92.71;99516.66;1695710;81;21880;-46
2022/09/20 12:23:57;;;;;;;3.30;2.05;;;;;;;13.60;93.82;99512.27;1699761;82;20973;-39
2022/09/20 12:26:36;;;;;;;5.40;1.70;;;;;;;13.63;94.77;99518.78;1702368;82;21001;-47
2022/09/20 12:29:31;;;;;;;2.83;1.57;;;;;;;13.67;95.18;99510.75;1707850;81;20993;-39
2022/09/20 12:32:02;;;;;;;1.60;1.30;;;;;;;13.71;95.49;99511.55;1693951;82;21001;-40
2022/09/20 12:34:35;;;;;;;3.52;1.62;;;;;;;13.77;95.75;99491.68;1689213;82;21072;-40
2022/09/20 12:37:06;;;;;;;;;;;;;;;13.84;96.18;99489.30;1692132;81;21000;-40
2022/09/20 12:39:35;;;;;;;3.25;1.65;;;;;;;13.93;96.11;99500.05;1703072;82;20525;-46
2022/09/20 12:42:11;;;;;;;2.37;1.72;;;;;;;13.97;95.81;99491.15;1694921;82;21010;-37
2022/09/20 12:45:00;;;;;;;1.82;1.57;;;;;;;13.99;96.07;99487.59;1693244;83;21068;-38
2022/09/20 12:47:33;;;;;;;2.60;1.75;;;;;;;13.99;96.63;99490.22;1705622;83;21049;-39
2022/09/20 12:52:52;;;;;;;6.03;3.80;;;;;;;13.97;97.36;99480.63;1697861;83;21409;-46
2022/09/20 12:55:28;;;;;;;3.53;3.20;;;;;;;13.88;98.14;99481.75;1696394;83;21025;-39
2022/09/20 12:58:16;;;;;;;10.05;3.83;;;;;;;13.77;99.02;99464.08;1691595;81;21023;-45
2022/09/20 13:00:51;;;;;;;13.22;4.17;;;;;;;13.69;99.69;99468.23;1727978;81;21086;-45
2022/09/20 13:03:28;;;;;;;9.80;4.12;;;;;;;13.64;100.00;99479.31;1727287;82;21635;-37
2022/09/20 13:06:11;;;;;;;9.45;3.85;;;;;;;13.67;100.00;99478.35;1722926;80;21036;-38
2022/09/20 13:09:07;;;;;;;6.00;4.15;;;;;;;13.72;100.00;99465.51;1755512;80;20996;-38
2022/09/20 13:11:43;;;;;;;7.65;3.83;;;;;;;13.79;99.84;99465.75;1721185;81;21460;-45
2022/09/20 13:14:22;;;;;;;6.00;4.00;;;;;;;13.87;99.40;99473.45;1727987;81;21017;-46
2022/09/20 13:17:01;;;;;;;5.30;3.42;;;;;;;13.86;99.35;99466.48;1732830;81;21044;-39
2022/09/20 13:19:37;;;;;;;4.85;3.37;;;;;;;13.81;99.02;99474.48;1738926;81;21027;-46
2022/09/20 13:22:05;;;;;;;5.30;2.90;;;;;;;13.73;97.06;99487.39;1697219;82;21049;-46
2022/09/20 13:24:38;;;;;;;5.20;4.33;;;;;;;13.56;96.78;99483.88;1712157;83;21077;-46
2022/09/20 13:27:08;;;;;;;4.58;2.77;;;;;;;13.41;96.74;99478.56;1713660;83;21543;-46
2022/09/20 13:29:43;;;;;;;5.00;2.70;;;;;;;13.28;97.20;99466.64;1709311;83;21073;-46
2022/09/20 13:32:27;;;;;;;4.10;2.10;;;;;;;13.18;97.73;99463.77;1719503;83;21009;-39
2022/09/20 13:35:23;;;;;;;4.37;2.60;;;;;;;13.13;97.92;99460.39;1722613;82;21143;-45
2022/09/20 13:38:01;;;;;;;3.15;2.00;;;;;;;13.17;97.67;99457.66;1717271;82;21024;-46
2022/09/20 13:40:34;;;;;;;4.65;1.62;;;;;;;13.28;96.15;99453.05;1723313;82;21206;-39
2022/09/20 13:43:13;;;;;;;3.95;1.60;;;;;;;13.35;93.78;99453.76;1725699;82;21009;-46
2022/09/20 13:45:41;;;;;;;1.45;1.35;;;;;;;13.43;93.30;99457.50;1666906;83;21143;-46
2022/09/20 13:48:08;;;;;;;2.00;1.10;;;;;;;13.54;92.97;99463.36;1677328;84;21665;-39
2022/09/20 13:50:36;;;;;;;1.62;1.22;;;;;;;13.66;92.14;99460.41;1668575;84;21164;-41
2022/09/20 13:53:16;;;;;;;1.77;1.20;;;;;;;13.75;91.06;99458.01;1648586;85;21059;-47
2022/09/20 13:55:45;;;;;;;1.52;1.00;;;;;;;13.82;89.88;99456.48;1651553;86;21178;-39
2022/09/20 13:58:27;;;;;;;2.67;1.75;;;;;;;13.85;89.12;99452.89;1645851;86;21068;-39
2022/09/20 14:00:58;;;;;;;2.08;1.45;;;;;;;13.87;90.01;99457.69;1663820;85;21071;-47
2022/09/20 14:03:27;;;;;;;4.15;2.90;;;;;;;13.89;91.01;99451.92;1661865;85;21540;-39
2022/09/20 14:05:57;;;;;;;5.47;4.03;;;;;;;13.92;91.57;99453.63;1657346;85;21641;-47
2022/09/20 14:08:43;;;;;;;3.42;1.90;;;;;;;13.96;92.92;99446.04;1660157;85;21123;-47
2022/09/20 14:11:23;;;;;;;4.97;3.27;;;;;;;14.02;93.69;99443.24;1641838;85;21100;-40
2022/09/20 14:13:53;;;;;;;6.33;3.60;;;;;;;14.03;92.66;99444.96;1652272;85;21124;-39
2022/09/20 14:16:25;;;;;;;5.87;3.90;;;;;;;14.13;93.13;99448.21;1648268;83;21139;-47
2022/09/20 14:18:52;;;;;;;9.90;4.50;;;;;;;14.33;92.90;99448.07;1667954;85;21033;-39
2022/09/20 14:21:24;;;;;;;4.75;3.62;;;;;;;14.52;91.86;99447.11;1663913;83;21131;-38
2022/09/20 14:24:07;;;;;;;;;;;;;;;14.64;92.08;99445.88;1729247;82;21004;-39
2022/09/20 14:26:36;;;;;;;5.90;3.60;;;;;;;14.70;92.29;99454.91;1714329;82;20112;-38
2022/09/20 14:29:42;;;;;;;8.30;3.85;;;;;;;14.68;92.03;99455.42;1711645;82;21017;-46
2022/09/20 14:32:26;;;;;;;5.85;2.72;;;;;;;14.66;92.59;99458.98;1695522;84;21036;-38
2022/09/20 14:35:17;;;;;;;5.50;3.35;;;;;;;14.83;92.50;99452.30;1716118;82;21568;-46
2022/09/20 14:37:54;;;;;;;5.05;3.80;;;;;;;15.32;91.37;99457.36;1753338;81;21526;-39
2022/09/20 14:40:32;;;;;;;7.42;3.60;;;;;;;15.67;89.04;99453.58;1753354;80;21068;-40
2022/09/20 14:43:01;;;;;;;5.15;3.17;;;;;;;15.84;87.66;99451.69;1752843;81;21133;-47
2022/09/20 14:45:33;;;;;;;6.90;3.65;;;;;;;15.72;87.33;99452.11;1756735;81;21100;-39
2022/09/20 14:48:07;;;;;;;4.87;2.12;;;;;;;15.50;85.91;99458.98;1757417;80;22158;-38
2022/09/20 14:50:44;;;;;;;0.80;0.75;;;;;;;15.21;82.11;99462.11;1753419;81;21594;-46
2022/09/20 14:53:22;;;;;;;1.12;0.90;;;;;;;14.94;78.61;99463.83;1726244;81;21028;-47
2022/09/20 14:56:08;;;;;;;1.57;0.70;;;;;;;14.74;77.88;99461.81;1724122;81;21047;-46
2022/09/20 14:59:13;;;;;;;3.55;1.75;;;;;;;14.55;77.94;99463.25;1731620;81;21071;-38
2022/09/20 15:01:41;;;;;;;1.70;1.60;;;;;;;14.37;78.80;99469.88;1723910;82;21016;-39
2022/09/20 15:04:16;;;;;;;3.17;2.87;;;;;;;14.21;79.52;99464.66;1732440;81;21077;-46
2022/09/20 15:06:43;;;;;;;3.50;3.20;;;;;;;14.10;80.25;99466.27;1727592;81;21027;-46
2022/09/20 15:09:11;;;;;;;5.70;4.45;;;;;;;14.00;80.68;99472.67;1729311;81;21543;-45
2022/09/20 15:11:39;;;;;;;6.60;5.03;;;;;;;13.93;81.46;99472.44;1746453;81;21044;-38
2022/09/20 15:14:07;;;;;;;7.55;4.72;;;;;;;13.87;81.72;99477.86;1753179;80;21051;-39
2022/09/20 15:16:33;;;;;;;7.15;5.28;;;;;;;13.80;82.31;99483.28;1716758;80;21073;-40
2022/09/20 15:19:00;;;;;;;7.85;4.05;;;;;;;13.79;83.16;99475.41;1697717;83;21480;-46
2022/09/20 15:21:27;;;;;;;4.53;4.08;;;;;;;13.76;83.18;99480.31;1737346;81;21926;-39
2022/09/20 15:23:53;;;;;;;4.70;3.27;;;;;;;13.73;82.99;99481.69;1755316;80;21084;-47
2022/09/20 15:26:20;;;;;;;4.70;2.52;;;;;;;13.73;83.10;99479.05;1754222;80;21108;-39
2022/09/20 15:28:47;;;;;;;2.70;2.42;;;;;;;13.74;83.06;99482.13;1749566;81;21574;-40
2022/09/20 15:31:14;;;;;;;3.08;2.75;;;;;;;13.69;83.27;99474.80;1694725;83;21630;-46
2022/09/20 15:33:40;;;;;;;4.45;2.40;;;;;;;13.63;83.77;99485.47;1740744;81;21012;-39
2022/09/20 15:36:07;;;;;;;5.35;2.37;;;;;;;13.57;83.99;99483.86;1727395;81;21095;-40
2022/09/20 15:38:34;;;;;;;4.95;2.00;;;;;;;13.50;83.28;99480.95;1722168;82;21434;-39
2022/09/20 15:41:03;;;;;;;1.70;1.60;;;;;;;13.43;83.31;99485.09;1721253;82;21040;-47
2022/09/20 15:43:30;;;;;;;1.20;1.10;;;;;;;13.40;83.51;99483.87;1728909;81;21516;-47
2022/09/20 15:46:00;;;;;;;1.22;1.12;;;;;;;13.36;84.21;99490.95;1729669;81;21060;-40
2022/09/20 15:48:29;;;;;;;2.70;1.30;;;;;;;13.30;84.72;99490.64;1736607;81;21028;-46
2022/09/20 15:51:06;;;;;;;1.42;1.10;;;;;;;13.25;83.44;99495.59;1730575;81;21111;-46
2022/09/20 15:53:45;;;;;;;2.25;0.98;;;;;;;13.18;80.60;99496.16;1724418;81;21582;-46
2022/09/20 15:56:22;;;;;;;2.00;1.67;;;;;;;13.11;79.52;99502.45;1721902;81;21175;-40
2022/09/20 15:58:52;;;;;;;5.78;3.08;;;;;;;13.04;79.75;99503.47;1727941;81;21040;-47
2022/09/20 16:01:18;;;;;;;6.05;3.02;;;;;;;12.95;79.25;99499.30;1733597;81;21519;-46
2022/09/20 16:03:45;;;;;;;2.12;1.80;;;;;;;12.86;77.81;99509.12;1736598;81;21067;-41
2022/09/20 16:06:12;;;;;;;4.78;3.08;;;;;;;12.73;76.10;99523.83;1732875;81;21044;-39
2022/09/20 16:08:41;;;;;;;5.05;2.52;;;;;;;12.61;75.97;99522.77;1753505;80;21534;-47
2022/09/20 16:11:11;;;;;;;8.43;2.17;;;;;;;12.50;76.56;99524.75;1737358;81;21076;-41
2022/09/20 16:13:38;;;;;;;29.02;7.55;;;;;;;12.36;76.79;99532.90;1735298;81;21000;-40
2022/09/20 16:16:06;;;;;;;19.98;6.37;;;;;;;12.23;77.20;99530.07;1725386;81;21594;-39
2022/09/20 16:21:20;;;;;;;9.20;3.58;;;;;;;11.99;77.88;99527.45;1716262;82;21552;-41
2022/09/20 16:23:55;;;;;;;3.12;1.30;;;;;;;11.85;78.51;99530.78;1668796;84;21147;-41
2022/09/20 16:26:23;;;;;;;2.33;1.30;;;;;;;11.77;78.65;99537.85;1687878;83;21587;-40
2022/09/20 16:28:50;;;;;;;0.50;0.50;;;;;;;11.68;78.62;99537.13;1752725;81;21055;-46
2022/09/20 16:31:43;;;;;;;2.02;0.68;;;;;;;11.60;78.68;99540.33;1721384;81;21072;-39
2022/09/20 16:34:30;;;;;;;0.33;0.33;;;;;;;11.49;78.86;99538.33;1696527;83;21048;-39
2022/09/20 16:37:02;;;;;;;0.30;0.20;;;;;;;11.41;78.93;99534.94;1701122;83;21056;-40
2022/09/20 16:39:29;;;;;;;4.90;0.40;;;;;;;11.32;79.17;99535.10;1757529;80;22200;-48
2022/09/20 16:42:03;;;;;;;0.30;0.30;;;;;;;11.23;79.64;99528.67;1754916;81;21579;-46
2022/09/20 16:44:30;;;;;;;2.30;0.40;;;;;;;11.14;79.98;99530.55;1760889;80;21102;-47
2022/09/20 16:46:56;;;;;;;0.47;0.40;;;;;;;11.03;80.33;99521.98;1701961;81;21061;-39
2022/09/20 16:49:25;;;;;;;0.40;0.40;;;;;;;10.96;80.67;99522.07;1696649;82;21025;-47
2022/09/20 16:51:51;;;;;;;0.42;0.30;;;;;;;10.86;80.83;99519.59;1737711;81;21587;-47
2022/09/20 16:54:19;;;;;;;0.60;0.60;;;;;;;10.79;80.89;99515.78;1755605;81;21028;-39
2022/09/20 16:56:49;;;;;;;1.42;0.40;;;;;;;10.70;80.91;99520.68;1747279;81;21043;-40
2022/09/20 16:59:20;;;;;;;0.20;0.20;;;;;;;10.62;81.03;99527.33;1751527;81;21047;-47
2022/09/20 17:01:47;;;;;;;1.10;0.50;;;;;;;10.57;80.89;99526.95;1749182;81;21044;-39
2022/09/20 17:04:16;;;;;;;0.50;0.50;;;;;;;10.51;80.80;99529.20;1748425;81;21083;-46
2022/09/20 17:06:44;;;;;;;1.95;0.40;;;;;;;10.46;81.09;99529.70;1750542;81;21104;-46
2022/09/20 17:09:11;;;;;;;0.33;0.28;;;;;;;10.41;81.49;99531.49;1751947;81;21614;-45
2022/09/20 17:11:48;;;;;;;0.85;0.47;;;;;;;10.34;81.96;99533.31;1729219;81;21658;-45
2022/09/20 17:14:17;;;;;;;0.75;0.40;;;;;;;10.26;82.30;99543.41;1732873;82;21020;-41
2022/09/20 17:16:47;;;;;;;1.92;0.60;;;;;;;10.17;82.77;99539.13;1730822;82;21552;-39
2022/09/20 17:19:18;;;;;;;1.75;0.40;;;;;;;10.12;83.18;99544.41;1735337;81;21038;-41
2022/09/20 17:21:49;;;;;;;0.57;0.57;;;;;;;10.07;83.46;99544.02;1734396;81;21028;-39
2022/09/20 17:24:19;;;;;;;0.50;0.50;;;;;;;10.03;83.77;99546.23;1718231;82;21067;-40
2022/09/20 17:26:45;;;;;;;0.60;0.50;;;;;;;9.95;83.89;99545.00;1737288;81;21103;-46
2022/09/20 17:29:15;;;;;;;2.52;0.47;;;;;;;9.88;84.00;99547.70;1668597;85;21103;-46
2022/09/20 17:31:45;;;;;;;0.90;0.50;;;;;;;9.82;84.28;99546.87;1719544;81;21551;-39
2022/09/20 17:34:14;;;;;;;1.02;0.62;;;;;;;9.78;84.57;99542.98;1732903;81;21020;-39
2022/09/20 17:36:43;;;;;;;1.17;0.82;;;;;;;9.75;84.90;99550.42;1730946;81;21062;-47
2022/09/20 17:39:11;;;;;;;0.70;0.60;;;;;;;9.71;85.20;99547.84;1722780;81;21496;-45
2022/09/20 17:41:40;;;;;;;2.87;1.30;;;;;;;9.67;85.48;99550.91;1734000;81;21020;-46
2022/09/20 17:44:08;;;;;;;1.22;0.78;;;;;;;9.62;85.76;99558.34;1722784;81;20996;-38
2022/09/20 17:46:41;;;;;;;3.90;1.15;;;;;;;9.57;86.01;99554.49;1723423;81;21041;-38
2022/09/20 17:49:11;;;;;;;2.17;1.20;;;;;;;9.53;86.34;99558.86;1727169;81;21725;-45
2022/09/20 17:51:40;;;;;;;1.95;1.70;;;;;;;9.49;86.66;99561.05;1727411;81;21333;-39
2022/09/20 17:54:07;;;;;;;5.80;2.08;;;;;;;9.48;86.87;99570.21;1726317;81;21563;-46
2022/09/20 17:56:34;;;;;;;2.58;2.05;;;;;;;9.46;87.05;99570.67;1730336;81;21064;-46
2022/09/20 17:59:03;;;;;;;1.92;1.82;;;;;;;9.44;87.21;99564.58;1714578;82;21057;-39
2022/09/20 18:01:31;;;;;;;2.05;1.85;;;;;;;9.39;87.40;99565.91;1721260;82;21068;-38
2022/09/20 18:03:59;;;;;;;3.95;2.40;;;;;;;9.38;87.63;99569.84;1744043;81;20992;-47
2022/09/20 18:06:31;;;;;;;2.17;1.92;;;;;;;9.36;87.78;99572.47;1751899;80;21086;-47
2022/09/20 18:09:02;;;;;;;2.37;2.00;;;;;;;9.33;87.96;99568.56;1754522;81;21008;-46
2022/09/20 18:11:42;;;;;;;2.55;1.92;;;;;;;9.32;88.30;99569.00;1757532;81;21011;-39
2022/09/20 18:14:09;;;;;;;3.02;2.10;;;;;;;9.31;88.54;99571.19;1756842;80;21047;-47
2022/09/20 18:16:37;;;;;;;3.42;1.95;;;;;;;9.29;88.63;99570.78;1752930;81;21056;-47
2022/09/20 18:19:05;;;;;;;1.87;1.77;;;;;;;9.26;88.79;99566.87;1753476;81;21027;-39
2022/09/20 18:21:34;;;;;;;2.37;1.67;;;;;;;9.23;88.86;99569.08;1730314;81;21056;-44
2022/09/20 18:24:04;;;;;;;4.17;1.87;;;;;;;9.18;89.12;99568.23;1723781;82;21004;-38
2022/09/20 18:26:31;;;;;;;2.77;2.27;;;;;;;9.14;89.43;99573.03;1727949;81;21554;-38
2022/09/20 18:29:04;;;;;;;2.45;2.25;;;;;;;9.10;89.71;99565.22;1726881;81;21108;-46
2022/09/20 18:31:43;;;;;;;2.20;2.00;;;;;;;9.05;89.97;99566.13;1720760;81;21068;-46
2022/09/20 18:34:14;;;;;;;5.92;2.40;;;;;;;9.01;90.41;99565.71;1722934;81;21071;-46
2022/09/20 18:36:41;;;;;;;3.05;2.72;;;;;;;9.00;90.78;99565.73;1753182;81;21498;-47
2022/09/20 18:39:07;;;;;;;5.15;2.08;;;;;;;9.01;91.14;99566.16;1754343;80;21011;-39